sensor_id;sensor_type;location;lat;lon;timestamp;P1;durP1;ratioP1;P2;durP2;ratioP2
15814;SDS011;8008;50.024;8.172;2024-03-02T04:01:29;13.33;;;7.63;;
15814;SDS011;8008;50.024;8.172;2024-03-02T04:03:57;11.30;;;7.47;;
15814;SDS011;8008;50.024;8.172;2024-03-02T04:06:25;13.10;;;7.83;;
15814;SDS011;8008;50.024;8.172;2024-03-02T04:08:53;12.83;;;7.80;;
15814;SDS011;8008;50.024;8.172;2024-03-02T04:11:21;12.23;;;7.80;;
15814;SDS011;8008;50.024;8.172;2024-03-02T04:13:49;13.47;;;7.93;;
15814;SDS011;8008;50.024;8.172;2024-03-02T04:16:20;11.30;;;7.13;;
15814;SDS011;8008;50.024;8.172;2024-03-02T04:18:50;12.13;;;7.87;;
15814;SDS011;8008;50.024;8.172;2024-03-02T04:21:18;16.80;;;7.27;;
15814;SDS011;8008;50.024;8.172;2024-03-02T04:23:46;12.80;;;8.30;;
15814;SDS011;8008;50.024;8.172;2024-03-02T04:26:14;10.37;;;7.50;;
15814;SDS011;8008;50.024;8.172;2024-03-02T04:28:46;11.10;;;7.60;;
15814;SDS011;8008;50.024;8.172;2024-03-02T04:31:14;14.50;;;7.93;;
15814;SDS011;8008;50.024;8.172;2024-03-02T04:33:42;14.37;;;7.37;;
15814;SDS011;8008;50.024;8.172;2024-03-02T04:36:11;12.30;;;7.40;;
15814;SDS011;8008;50.024;8.172;2024-03-02T04:38:39;12.30;;;7.73;;
15814;SDS011;8008;50.024;8.172;2024-03-02T04:41:07;13.47;;;7.70;;
15814;SDS011;8008;50.024;8.172;2024-03-02T04:43:35;12.97;;;8.13;;
15814;SDS011;8008;50.024;8.172;2024-03-02T04:46:03;13.20;;;8.03;;
15814;SDS011;8008;50.024;8.172;2024-03-02T04:48:32;12.63;;;7.80;;
15814;SDS011;8008;50.024;8.172;2024-03-02T04:51:00;12.07;;;7.47;;
15814;SDS011;8008;50.024;8.172;2024-03-02T04:53:29;13.90;;;8.47;;
15814;SDS011;8008;50.024;8.172;2024-03-02T04:55:57;13.77;;;7.97;;
15814;SDS011;8008;50.024;8.172;2024-03-02T04:58:46;11.37;;;7.27;;
15814;SDS011;8008;50.024;8.172;2024-03-02T05:01:14;12.37;;;8.23;;
15814;SDS011;8008;50.024;8.172;2024-03-02T05:03:43;13.73;;;8.43;;
15814;SDS011;8008;50.024;8.172;2024-03-02T05:06:11;12.23;;;7.60;;
15814;SDS011;8008;50.024;8.172;2024-03-02T05:08:41;15.07;;;8.93;;
15814;SDS011;8008;50.024;8.172;2024-03-02T05:11:11;16.23;;;10.00;;
15814;SDS011;8008;50.024;8.172;2024-03-02T05:14:16;14.77;;;8.80;;
15814;SDS011;8008;50.024;8.172;2024-03-02T05:16:43;14.17;;;9.43;;
15814;SDS011;8008;50.024;8.172;2024-03-02T05:19:11;13.77;;;9.30;;
15814;SDS011;8008;50.024;8.172;2024-03-02T05:21:39;14.07;;;8.57;;
15814;SDS011;8008;50.024;8.172;2024-03-02T05:24:08;13.70;;;8.23;;
15814;SDS011;8008;50.024;8.172;2024-03-02T05:26:36;13.00;;;8.13;;
15814;SDS011;8008;50.024;8.172;2024-03-02T05:29:04;15.20;;;8.17;;
15814;SDS011;8008;50.024;8.172;2024-03-02T05:31:32;13.50;;;8.73;;
15814;SDS011;8008;50.024;8.172;2024-03-02T05:34:00;13.97;;;8.97;;
15814;SDS011;8008;50.024;8.172;2024-03-02T05:36:29;14.17;;;8.87;;
15814;SDS011;8008;50.024;8.172;2024-03-02T05:38:58;14.30;;;8.43;;
15814;SDS011;8008;50.024;8.172;2024-03-02T05:41:27;13.00;;;7.83;;
15814;SDS011;8008;50.024;8.172;2024-03-02T05:43:55;14.57;;;8.57;;
15814;SDS011;8008;50.024;8.172;2024-03-02T05:46:23;14.20;;;8.30;;
15814;SDS011;8008;50.024;8.172;2024-03-02T05:48:51;13.07;;;7.97;;
15814;SDS011;8008;50.024;8.172;2024-03-02T05:51:19;13.70;;;8.20;;
15814;SDS011;8008;50.024;8.172;2024-03-02T05:53:47;12.40;;;8.27;;
15814;SDS011;8008;50.024;8.172;2024-03-02T05:56:15;13.97;;;8.53;;
15814;SDS011;8008;50.024;8.172;2024-03-02T05:58:44;13.17;;;7.90;;
15814;SDS011;8008;50.024;8.172;2024-03-02T06:01:24;13.50;;;8.13;;
15814;SDS011;8008;50.024;8.172;2024-03-02T06:03:55;13.80;;;8.53;;
15814;SDS011;8008;50.024;8.172;2024-03-02T06:06:23;14.70;;;8.87;;
15814;SDS011;8008;50.024;8.172;2024-03-02T06:08:51;13.50;;;8.30;;
15814;SDS011;8008;50.024;8.172;2024-03-02T06:11:19;13.50;;;8.33;;
15814;SDS011;8008;50.024;8.172;2024-03-02T06:13:49;15.13;;;9.13;;
15814;SDS011;8008;50.024;8.172;2024-03-02T06:16:17;13.53;;;8.20;;
15814;SDS011;8008;50.024;8.172;2024-03-02T06:18:45;13.07;;;8.40;;
15814;SDS011;8008;50.024;8.172;2024-03-02T06:21:12;14.23;;;8.83;;
15814;SDS011;8008;50.024;8.172;2024-03-02T06:23:40;14.73;;;8.50;;
15814;SDS011;8008;50.024;8.172;2024-03-02T06:26:09;17.07;;;8.20;;
15814;SDS011;8008;50.024;8.172;2024-03-02T06:28:37;15.23;;;9.20;;
15814;SDS011;8008;50.024;8.172;2024-03-02T06:31:06;13.50;;;8.47;;
15814;SDS011;8008;50.024;8.172;2024-03-02T06:33:34;14.53;;;9.00;;
15814;SDS011;8008;50.024;8.172;2024-03-02T06:36:02;14.70;;;8.93;;
15814;SDS011;8008;50.024;8.172;2024-03-02T06:38:30;15.40;;;8.57;;
15814;SDS011;8008;50.024;8.172;2024-03-02T06:40:58;15.17;;;9.33;;
15814;SDS011;8008;50.024;8.172;2024-03-02T06:43:26;17.00;;;9.50;;
15814;SDS011;8008;50.024;8.172;2024-03-02T06:45:54;15.93;;;9.17;;
15814;SDS011;8008;50.024;8.172;2024-03-02T06:48:23;15.57;;;9.00;;
15814;SDS011;8008;50.024;8.172;2024-03-02T06:50:51;13.53;;;8.60;;
15814;SDS011;8008;50.024;8.172;2024-03-02T06:53:19;15.17;;;8.87;;
15814;SDS011;8008;50.024;8.172;2024-03-02T06:55:48;13.50;;;8.73;;
15814;SDS011;8008;50.024;8.172;2024-03-02T06:58:16;16.33;;;9.13;;
15814;SDS011;8008;50.024;8.172;2024-03-02T07:00:44;13.63;;;8.87;;
15814;SDS011;8008;50.024;8.172;2024-03-02T07:03:14;16.37;;;8.90;;
15814;SDS011;8008;50.024;8.172;2024-03-02T07:05:43;16.50;;;9.30;;
15814;SDS011;8008;50.024;8.172;2024-03-02T07:08:11;15.97;;;9.13;;
15814;SDS011;8008;50.024;8.172;2024-03-02T07:10:39;14.93;;;8.57;;
15814;SDS011;8008;50.024;8.172;2024-03-02T07:13:07;15.13;;;9.00;;
15814;SDS011;8008;50.024;8.172;2024-03-02T07:15:35;14.48;;;8.80;;
15814;SDS011;8008;50.024;8.172;2024-03-02T07:18:19;13.80;;;8.37;;
15814;SDS011;8008;50.024;8.172;2024-03-02T07:20:49;14.53;;;8.47;;
15814;SDS011;8008;50.024;8.172;2024-03-02T07:23:17;13.73;;;8.20;;
15814;SDS011;8008;50.024;8.172;2024-03-02T07:25:46;13.97;;;8.30;;
15814;SDS011;8008;50.024;8.172;2024-03-02T07:28:17;14.00;;;8.53;;
15814;SDS011;8008;50.024;8.172;2024-03-02T07:30:45;15.18;;;8.70;;
15814;SDS011;8008;50.024;8.172;2024-03-02T07:33:13;15.73;;;9.13;;
15814;SDS011;8008;50.024;8.172;2024-03-02T07:35:43;13.15;;;7.93;;
15814;SDS011;8008;50.024;8.172;2024-03-02T07:38:12;14.80;;;8.63;;
15814;SDS011;8008;50.024;8.172;2024-03-02T07:40:40;13.80;;;8.50;;
15814;SDS011;8008;50.024;8.172;2024-03-02T07:43:08;14.35;;;8.35;;
15814;SDS011;8008;50.024;8.172;2024-03-02T07:45:36;13.20;;;7.80;;
15814;SDS011;8008;50.024;8.172;2024-03-02T07:48:04;14.05;;;8.57;;
15814;SDS011;8008;50.024;8.172;2024-03-02T07:50:33;15.95;;;8.38;;
15814;SDS011;8008;50.024;8.172;2024-03-02T07:53:01;15.25;;;8.48;;
15814;SDS011;8008;50.024;8.172;2024-03-02T07:55:31;14.85;;;8.30;;
15814;SDS011;8008;50.024;8.172;2024-03-02T07:57:59;15.52;;;8.98;;
15814;SDS011;8008;50.024;8.172;2024-03-02T08:00:28;11.15;;;8.27;;
15814;SDS011;8008;50.024;8.172;2024-03-02T08:02:56;15.88;;;8.52;;
15814;SDS011;8008;50.024;8.172;2024-03-02T08:05:24;12.63;;;8.57;;
15814;SDS011;8008;50.024;8.172;2024-03-02T08:07:53;15.20;;;8.07;;
15814;SDS011;8008;50.024;8.172;2024-03-02T08:10:21;14.15;;;8.57;;
15814;SDS011;8008;50.024;8.172;2024-03-02T08:12:50;14.45;;;8.48;;
15814;SDS011;8008;50.024;8.172;2024-03-02T08:15:18;15.88;;;8.65;;
15814;SDS011;8008;50.024;8.172;2024-03-02T08:17:46;14.38;;;8.48;;
15814;SDS011;8008;50.024;8.172;2024-03-02T08:20:16;12.15;;;8.00;;
15814;SDS011;8008;50.024;8.172;2024-03-02T08:22:45;12.63;;;7.90;;
15814;SDS011;8008;50.024;8.172;2024-03-02T08:25:13;13.50;;;8.90;;
15814;SDS011;8008;50.024;8.172;2024-03-02T08:27:42;14.55;;;9.25;;
15814;SDS011;8008;50.024;8.172;2024-03-02T08:30:12;15.98;;;9.52;;
15814;SDS011;8008;50.024;8.172;2024-03-02T08:32:40;14.30;;;9.35;;
15814;SDS011;8008;50.024;8.172;2024-03-02T08:35:08;15.30;;;8.63;;
15814;SDS011;8008;50.024;8.172;2024-03-02T08:37:37;16.00;;;9.30;;
15814;SDS011;8008;50.024;8.172;2024-03-02T08:40:07;13.13;;;8.45;;
15814;SDS011;8008;50.024;8.172;2024-03-02T08:42:36;11.88;;;8.18;;
15814;SDS011;8008;50.024;8.172;2024-03-02T08:45:04;12.73;;;8.40;;
15814;SDS011;8008;50.024;8.172;2024-03-02T08:47:34;13.43;;;8.38;;
15814;SDS011;8008;50.024;8.172;2024-03-02T08:50:02;11.45;;;7.97;;
15814;SDS011;8008;50.024;8.172;2024-03-02T08:52:31;13.73;;;8.50;;
15814;SDS011;8008;50.024;8.172;2024-03-02T08:54:59;12.85;;;7.95;;
15814;SDS011;8008;50.024;8.172;2024-03-02T08:57:27;12.48;;;7.90;;
15814;SDS011;8008;50.024;8.172;2024-03-02T08:59:55;13.95;;;8.18;;
15814;SDS011;8008;50.024;8.172;2024-03-02T09:02:23;13.05;;;7.80;;
15814;SDS011;8008;50.024;8.172;2024-03-02T09:04:53;12.00;;;8.00;;
15814;SDS011;8008;50.024;8.172;2024-03-02T09:07:21;14.18;;;7.97;;
15814;SDS011;8008;50.024;8.172;2024-03-02T09:09:49;13.25;;;7.75;;
15814;SDS011;8008;50.024;8.172;2024-03-02T09:12:17;11.95;;;7.25;;
15814;SDS011;8008;50.024;8.172;2024-03-02T09:14:45;13.40;;;8.07;;
15814;SDS011;8008;50.024;8.172;2024-03-02T09:17:13;9.27;;;6.97;;
15814;SDS011;8008;50.024;8.172;2024-03-02T09:19:41;13.23;;;7.32;;
15814;SDS011;8008;50.024;8.172;2024-03-02T09:22:11;10.88;;;7.57;;
15814;SDS011;8008;50.024;8.172;2024-03-02T09:24:39;11.07;;;7.43;;
15814;SDS011;8008;50.024;8.172;2024-03-02T09:27:08;14.90;;;8.20;;
15814;SDS011;8008;50.024;8.172;2024-03-02T09:29:36;11.38;;;7.53;;
15814;SDS011;8008;50.024;8.172;2024-03-02T09:32:04;10.32;;;7.47;;
15814;SDS011;8008;50.024;8.172;2024-03-02T09:34:33;13.07;;;8.07;;
15814;SDS011;8008;50.024;8.172;2024-03-02T09:37:01;14.57;;;8.13;;
15814;SDS011;8008;50.024;8.172;2024-03-02T09:39:32;13.00;;;8.20;;
15814;SDS011;8008;50.024;8.172;2024-03-02T09:41:59;11.98;;;7.88;;
15814;SDS011;8008;50.024;8.172;2024-03-02T09:44:28;13.13;;;8.50;;
15814;SDS011;8008;50.024;8.172;2024-03-02T09:46:56;11.63;;;8.07;;
15814;SDS011;8008;50.024;8.172;2024-03-02T09:49:24;12.77;;;7.80;;
15814;SDS011;8008;50.024;8.172;2024-03-02T09:51:53;12.40;;;8.70;;
15814;SDS011;8008;50.024;8.172;2024-03-02T09:54:21;12.13;;;8.27;;
15814;SDS011;8008;50.024;8.172;2024-03-02T09:56:52;12.95;;;8.07;;
15814;SDS011;8008;50.024;8.172;2024-03-02T09:59:20;11.80;;;8.27;;
15814;SDS011;8008;50.024;8.172;2024-03-02T10:01:58;13.38;;;8.80;;
15814;SDS011;8008;50.024;8.172;2024-03-02T10:04:28;12.15;;;8.60;;
15814;SDS011;8008;50.024;8.172;2024-03-02T10:09:41;13.27;;;8.75;;
15814;SDS011;8008;50.024;8.172;2024-03-02T10:12:13;12.60;;;8.48;;
15814;SDS011;8008;50.024;8.172;2024-03-02T10:14:42;11.90;;;7.82;;
15814;SDS011;8008;50.024;8.172;2024-03-02T10:17:10;12.43;;;8.38;;
15814;SDS011;8008;50.024;8.172;2024-03-02T10:19:40;11.75;;;8.23;;
15814;SDS011;8008;50.024;8.172;2024-03-02T10:22:08;12.05;;;8.70;;
15814;SDS011;8008;50.024;8.172;2024-03-02T10:24:38;13.00;;;8.18;;
15814;SDS011;8008;50.024;8.172;2024-03-02T10:27:08;13.27;;;8.68;;
15814;SDS011;8008;50.024;8.172;2024-03-02T10:29:39;11.63;;;8.32;;
15814;SDS011;8008;50.024;8.172;2024-03-02T10:32:11;14.48;;;8.95;;
15814;SDS011;8008;50.024;8.172;2024-03-02T10:34:39;11.52;;;8.38;;
15814;SDS011;8008;50.024;8.172;2024-03-02T10:37:08;12.02;;;8.82;;
15814;SDS011;8008;50.024;8.172;2024-03-02T10:39:40;14.75;;;8.30;;
15814;SDS011;8008;50.024;8.172;2024-03-02T10:42:08;15.50;;;8.85;;
15814;SDS011;8008;50.024;8.172;2024-03-02T10:44:36;12.73;;;8.32;;
15814;SDS011;8008;50.024;8.172;2024-03-02T10:47:06;14.80;;;8.45;;
15814;SDS011;8008;50.024;8.172;2024-03-02T10:49:39;13.13;;;8.32;;
15814;SDS011;8008;50.024;8.172;2024-03-02T10:52:09;12.35;;;8.35;;
15814;SDS011;8008;50.024;8.172;2024-03-02T10:54:37;11.60;;;8.05;;
15814;SDS011;8008;50.024;8.172;2024-03-02T10:57:07;14.00;;;7.97;;
15814;SDS011;8008;50.024;8.172;2024-03-02T10:59:40;13.82;;;8.27;;
15814;SDS011;8008;50.024;8.172;2024-03-02T11:02:19;12.90;;;8.02;;
15814;SDS011;8008;50.024;8.172;2024-03-02T11:04:49;13.63;;;8.25;;
15814;SDS011;8008;50.024;8.172;2024-03-02T11:07:22;14.35;;;7.78;;
15814;SDS011;8008;50.024;8.172;2024-03-02T11:09:53;10.75;;;7.53;;
15814;SDS011;8008;50.024;8.172;2024-03-02T11:12:29;10.82;;;7.57;;
15814;SDS011;8008;50.024;8.172;2024-03-02T11:14:59;11.00;;;7.75;;
15814;SDS011;8008;50.024;8.172;2024-03-02T11:17:30;11.32;;;7.15;;
15814;SDS011;8008;50.024;8.172;2024-03-02T11:19:58;11.48;;;7.75;;
15814;SDS011;8008;50.024;8.172;2024-03-02T11:22:27;13.52;;;7.80;;
15814;SDS011;8008;50.024;8.172;2024-03-02T11:24:56;11.18;;;7.75;;
15814;SDS011;8008;50.024;8.172;2024-03-02T11:33:26;13.15;;;7.47;;
15814;SDS011;8008;50.024;8.172;2024-03-02T11:35:57;11.75;;;7.63;;
15814;SDS011;8008;50.024;8.172;2024-03-02T11:38:32;10.02;;;7.13;;
15814;SDS011;8008;50.024;8.172;2024-03-02T11:41:01;9.85;;;6.75;;
15814;SDS011;8008;50.024;8.172;2024-03-02T11:43:36;8.90;;;6.78;;
15814;SDS011;8008;50.024;8.172;2024-03-02T11:46:06;8.45;;;6.47;;
15814;SDS011;8008;50.024;8.172;2024-03-02T11:48:39;12.77;;;7.50;;
15814;SDS011;8008;50.024;8.172;2024-03-02T11:51:07;11.80;;;7.35;;
15814;SDS011;8008;50.024;8.172;2024-03-02T11:53:35;10.23;;;7.05;;
15814;SDS011;8008;50.024;8.172;2024-03-02T11:56:06;10.95;;;6.95;;
15814;SDS011;8008;50.024;8.172;2024-03-02T11:58:35;9.05;;;6.75;;
15814;SDS011;8008;50.024;8.172;2024-03-02T12:01:04;10.45;;;6.95;;
15814;SDS011;8008;50.024;8.172;2024-03-02T12:03:32;9.80;;;6.68;;
15814;SDS011;8008;50.024;8.172;2024-03-02T12:06:03;8.73;;;6.57;;
15814;SDS011;8008;50.024;8.172;2024-03-02T12:08:33;8.13;;;6.07;;
15814;SDS011;8008;50.024;8.172;2024-03-02T12:11:02;10.30;;;6.38;;
15814;SDS011;8008;50.024;8.172;2024-03-02T12:13:30;8.05;;;6.18;;
15814;SDS011;8008;50.024;8.172;2024-03-02T12:15:59;9.93;;;6.25;;
15814;SDS011;8008;50.024;8.172;2024-03-02T12:18:27;8.18;;;6.07;;
15814;SDS011;8008;50.024;8.172;2024-03-02T12:20:55;8.68;;;6.00;;
15814;SDS011;8008;50.024;8.172;2024-03-02T12:23:26;7.75;;;5.90;;
15814;SDS011;8008;50.024;8.172;2024-03-02T12:25:54;9.23;;;6.28;;
15814;SDS011;8008;50.024;8.172;2024-03-02T12:28:23;9.75;;;6.32;;
15814;SDS011;8008;50.024;8.172;2024-03-02T12:30:51;9.45;;;6.47;;
15814;SDS011;8008;50.024;8.172;2024-03-02T12:33:19;10.55;;;6.20;;
15814;SDS011;8008;50.024;8.172;2024-03-02T12:35:48;7.95;;;5.85;;
15814;SDS011;8008;50.024;8.172;2024-03-02T12:38:16;8.50;;;6.05;;
15814;SDS011;8008;50.024;8.172;2024-03-02T12:40:48;9.98;;;6.25;;
15814;SDS011;8008;50.024;8.172;2024-03-02T12:43:16;10.38;;;6.28;;
15814;SDS011;8008;50.024;8.172;2024-03-02T12:45:44;9.52;;;5.85;;
15814;SDS011;8008;50.024;8.172;2024-03-02T12:48:13;10.68;;;6.20;;
15814;SDS011;8008;50.024;8.172;2024-03-02T12:50:41;8.73;;;5.57;;
15814;SDS011;8008;50.024;8.172;2024-03-02T12:53:13;8.52;;;5.57;;
15814;SDS011;8008;50.024;8.172;2024-03-02T12:55:42;9.45;;;5.15;;
15814;SDS011;8008;50.024;8.172;2024-03-02T12:58:18;7.30;;;5.07;;
15814;SDS011;8008;50.024;8.172;2024-03-02T13:00:47;9.05;;;5.50;;
15814;SDS011;8008;50.024;8.172;2024-03-02T13:03:17;8.27;;;5.35;;
15814;SDS011;8008;50.024;8.172;2024-03-02T13:05:50;6.80;;;4.85;;
15814;SDS011;8008;50.024;8.172;2024-03-02T13:08:19;5.88;;;4.38;;
15814;SDS011;8008;50.024;8.172;2024-03-02T13:10:47;7.38;;;4.65;;
15814;SDS011;8008;50.024;8.172;2024-03-02T13:13:15;6.22;;;4.35;;
15814;SDS011;8008;50.024;8.172;2024-03-02T13:15:45;7.40;;;5.05;;
15814;SDS011;8008;50.024;8.172;2024-03-02T13:18:13;7.43;;;5.15;;
15814;SDS011;8008;50.024;8.172;2024-03-02T13:20:41;7.40;;;4.50;;
15814;SDS011;8008;50.024;8.172;2024-03-02T13:23:09;5.38;;;4.18;;
15814;SDS011;8008;50.024;8.172;2024-03-02T13:25:37;6.25;;;3.97;;
15814;SDS011;8008;50.024;8.172;2024-03-02T13:28:05;4.95;;;4.18;;
15814;SDS011;8008;50.024;8.172;2024-03-02T13:30:35;5.40;;;3.85;;
15814;SDS011;8008;50.024;8.172;2024-03-02T13:33:05;4.82;;;3.55;;
15814;SDS011;8008;50.024;8.172;2024-03-02T13:35:32;5.28;;;3.45;;
15814;SDS011;8008;50.024;8.172;2024-03-02T13:38:00;5.38;;;3.25;;
15814;SDS011;8008;50.024;8.172;2024-03-02T13:40:28;4.40;;;3.20;;
15814;SDS011;8008;50.024;8.172;2024-03-02T13:42:57;5.35;;;3.55;;
15814;SDS011;8008;50.024;8.172;2024-03-02T13:45:25;5.40;;;3.47;;
15814;SDS011;8008;50.024;8.172;2024-03-02T13:47:55;5.22;;;3.60;;
15814;SDS011;8008;50.024;8.172;2024-03-02T13:50:23;5.10;;;3.70;;
15814;SDS011;8008;50.024;8.172;2024-03-02T13:52:51;3.92;;;3.20;;
15814;SDS011;8008;50.024;8.172;2024-03-02T13:55:19;4.47;;;3.30;;
15814;SDS011;8008;50.024;8.172;2024-03-02T13:57:47;4.97;;;3.20;;
15814;SDS011;8008;50.024;8.172;2024-03-02T14:00:16;4.50;;;3.38;;
15814;SDS011;8008;50.024;8.172;2024-03-02T14:02:45;4.78;;;3.22;;
15814;SDS011;8008;50.024;8.172;2024-03-02T14:05:17;4.65;;;3.50;;
15814;SDS011;8008;50.024;8.172;2024-03-02T14:07:45;5.72;;;3.63;;
15814;SDS011;8008;50.024;8.172;2024-03-02T14:10:13;4.70;;;3.30;;
15814;SDS011;8008;50.024;8.172;2024-03-02T14:12:42;5.75;;;3.80;;
15814;SDS011;8008;50.024;8.172;2024-03-02T14:15:10;4.82;;;4.00;;
15814;SDS011;8008;50.024;8.172;2024-03-02T14:17:38;5.63;;;3.30;;
15814;SDS011;8008;50.024;8.172;2024-03-02T14:20:07;3.67;;;3.05;;
15814;SDS011;8008;50.024;8.172;2024-03-02T14:22:38;5.25;;;3.08;;
15814;SDS011;8008;50.024;8.172;2024-03-02T14:25:06;3.03;;;2.55;;
15814;SDS011;8008;50.024;8.172;2024-03-02T14:27:34;3.45;;;2.83;;
15814;SDS011;8008;50.024;8.172;2024-03-02T14:30:22;3.28;;;2.38;;
15814;SDS011;8008;50.024;8.172;2024-03-02T14:32:51;3.25;;;2.92;;
15814;SDS011;8008;50.024;8.172;2024-03-02T14:35:19;3.85;;;3.13;;
15814;SDS011;8008;50.024;8.172;2024-03-02T14:37:50;3.47;;;2.83;;
15814;SDS011;8008;50.024;8.172;2024-03-02T14:40:19;3.15;;;2.83;;
15814;SDS011;8008;50.024;8.172;2024-03-02T14:42:48;4.25;;;3.08;;
15814;SDS011;8008;50.024;8.172;2024-03-02T14:45:16;4.25;;;3.38;;
15814;SDS011;8008;50.024;8.172;2024-03-02T14:47:43;4.32;;;2.90;;
15814;SDS011;8008;50.024;8.172;2024-03-02T14:50:12;3.10;;;2.70;;
15814;SDS011;8008;50.024;8.172;2024-03-02T14:52:41;4.18;;;3.38;;
15814;SDS011;8008;50.024;8.172;2024-03-02T14:55:13;6.30;;;4.70;;
15814;SDS011;8008;50.024;8.172;2024-03-02T14:57:41;4.38;;;3.40;;
15814;SDS011;8008;50.024;8.172;2024-03-02T15:00:10;4.88;;;3.42;;
15814;SDS011;8008;50.024;8.172;2024-03-02T15:02:38;4.15;;;3.67;;
15814;SDS011;8008;50.024;8.172;2024-03-02T15:05:06;5.47;;;3.78;;
15814;SDS011;8008;50.024;8.172;2024-03-02T15:07:35;4.90;;;4.00;;
15814;SDS011;8008;50.024;8.172;2024-03-02T15:10:04;5.47;;;4.30;;
15814;SDS011;8008;50.024;8.172;2024-03-02T15:12:34;5.05;;;4.05;;
15814;SDS011;8008;50.024;8.172;2024-03-02T15:15:03;5.07;;;3.88;;
15814;SDS011;8008;50.024;8.172;2024-03-02T15:17:31;3.58;;;2.97;;
15814;SDS011;8008;50.024;8.172;2024-03-02T15:19:59;5.20;;;3.22;;
15814;SDS011;8008;50.024;8.172;2024-03-02T15:22:28;3.67;;;3.28;;
15814;SDS011;8008;50.024;8.172;2024-03-02T15:24:56;4.85;;;3.70;;
15814;SDS011;8008;50.024;8.172;2024-03-02T15:27:23;5.60;;;3.92;;
15814;SDS011;8008;50.024;8.172;2024-03-02T15:29:55;3.92;;;3.30;;
15814;SDS011;8008;50.024;8.172;2024-03-02T15:32:24;5.57;;;3.53;;
15814;SDS011;8008;50.024;8.172;2024-03-02T15:34:53;6.43;;;3.30;;
15814;SDS011;8008;50.024;8.172;2024-03-02T15:37:21;5.10;;;3.30;;
15814;SDS011;8008;50.024;8.172;2024-03-02T15:39:49;4.45;;;3.20;;
15814;SDS011;8008;50.024;8.172;2024-03-02T15:42:17;4.50;;;3.33;;
15814;SDS011;8008;50.024;8.172;2024-03-02T15:44:45;4.38;;;3.30;;
15814;SDS011;8008;50.024;8.172;2024-03-02T15:47:14;4.47;;;3.50;;
15814;SDS011;8008;50.024;8.172;2024-03-02T15:49:42;6.40;;;3.40;;
15814;SDS011;8008;50.024;8.172;2024-03-02T15:52:10;3.90;;;2.97;;
15814;SDS011;8008;50.024;8.172;2024-03-02T15:54:40;4.50;;;2.88;;
15814;SDS011;8008;50.024;8.172;2024-03-02T15:57:09;5.03;;;3.08;;
15814;SDS011;8008;50.024;8.172;2024-03-02T15:59:38;3.80;;;2.67;;
15814;SDS011;8008;50.024;8.172;2024-03-02T16:02:05;3.20;;;2.78;;
15814;SDS011;8008;50.024;8.172;2024-03-02T16:04:35;4.43;;;2.70;;
15814;SDS011;8008;50.024;8.172;2024-03-02T16:07:03;3.28;;;2.42;;
15814;SDS011;8008;50.024;8.172;2024-03-02T16:09:31;4.80;;;2.95;;
15814;SDS011;8008;50.024;8.172;2024-03-02T16:11:59;4.63;;;3.10;;
15814;SDS011;8008;50.024;8.172;2024-03-02T16:14:27;3.92;;;2.90;;
15814;SDS011;8008;50.024;8.172;2024-03-02T16:16:55;5.55;;;3.13;;
15814;SDS011;8008;50.024;8.172;2024-03-02T16:19:24;5.15;;;3.15;;
15814;SDS011;8008;50.024;8.172;2024-03-02T16:22:01;3.90;;;2.90;;
15814;SDS011;8008;50.024;8.172;2024-03-02T16:24:32;3.60;;;2.80;;
15814;SDS011;8008;50.024;8.172;2024-03-02T16:27:00;3.00;;;2.70;;
15814;SDS011;8008;50.024;8.172;2024-03-02T16:29:28;5.30;;;2.90;;
15814;SDS011;8008;50.024;8.172;2024-03-02T16:31:56;4.80;;;2.80;;
15814;SDS011;8008;50.024;8.172;2024-03-02T16:34:24;4.95;;;2.90;;
15814;SDS011;8008;50.024;8.172;2024-03-02T16:36:52;4.97;;;3.22;;
15814;SDS011;8008;50.024;8.172;2024-03-02T16:39:22;3.72;;;2.78;;
15814;SDS011;8008;50.024;8.172;2024-03-02T16:41:51;5.03;;;3.20;;
15814;SDS011;8008;50.024;8.172;2024-03-02T16:44:19;3.28;;;2.70;;
15814;SDS011;8008;50.024;8.172;2024-03-02T16:46:47;3.65;;;3.00;;
15814;SDS011;8008;50.024;8.172;2024-03-02T16:49:15;7.05;;;2.80;;
15814;SDS011;8008;50.024;8.172;2024-03-02T16:51:43;7.80;;;4.00;;
15814;SDS011;8008;50.024;8.172;2024-03-02T16:54:13;7.82;;;5.07;;
15814;SDS011;8008;50.024;8.172;2024-03-02T16:56:42;11.98;;;6.68;;
15814;SDS011;8008;50.024;8.172;2024-03-02T16:59:11;12.95;;;6.95;;
15814;SDS011;8008;50.024;8.172;2024-03-02T17:01:39;9.18;;;5.57;;
15814;SDS011;8008;50.024;8.172;2024-03-02T17:04:07;9.52;;;5.00;;
15814;SDS011;8008;50.024;8.172;2024-03-02T17:06:36;8.90;;;5.15;;
15814;SDS011;8008;50.024;8.172;2024-03-02T17:09:04;10.02;;;5.07;;
15814;SDS011;8008;50.024;8.172;2024-03-02T17:11:32;9.75;;;4.97;;
15814;SDS011;8008;50.024;8.172;2024-03-02T17:14:02;11.73;;;5.45;;
15814;SDS011;8008;50.024;8.172;2024-03-02T17:16:30;8.73;;;4.90;;
15814;SDS011;8008;50.024;8.172;2024-03-02T17:18:58;9.45;;;5.38;;
15814;SDS011;8008;50.024;8.172;2024-03-02T17:21:26;10.07;;;5.78;;
15814;SDS011;8008;50.024;8.172;2024-03-02T17:23:54;11.80;;;6.15;;
15814;SDS011;8008;50.024;8.172;2024-03-02T17:26:24;9.10;;;5.03;;
15814;SDS011;8008;50.024;8.172;2024-03-02T17:28:52;12.10;;;6.50;;
15814;SDS011;8008;50.024;8.172;2024-03-02T17:31:22;18.48;;;8.85;;
15814;SDS011;8008;50.024;8.172;2024-03-02T17:33:50;16.63;;;8.82;;
15814;SDS011;8008;50.024;8.172;2024-03-02T17:36:18;18.13;;;9.07;;
15814;SDS011;8008;50.024;8.172;2024-03-02T17:38:46;13.80;;;8.10;;
15814;SDS011;8008;50.024;8.172;2024-03-02T17:41:14;10.45;;;6.57;;
15814;SDS011;8008;50.024;8.172;2024-03-02T17:43:42;11.48;;;6.75;;
15814;SDS011;8008;50.024;8.172;2024-03-02T17:46:10;9.65;;;6.05;;
15814;SDS011;8008;50.024;8.172;2024-03-02T17:48:39;8.30;;;4.93;;
15814;SDS011;8008;50.024;8.172;2024-03-02T17:51:07;9.98;;;5.15;;
15814;SDS011;8008;50.024;8.172;2024-03-02T17:53:36;8.20;;;4.68;;
15814;SDS011;8008;50.024;8.172;2024-03-02T17:56:04;6.68;;;4.40;;
15814;SDS011;8008;50.024;8.172;2024-03-02T17:58:36;8.57;;;3.92;;
15814;SDS011;8008;50.024;8.172;2024-03-02T18:01:04;5.63;;;3.78;;
15814;SDS011;8008;50.024;8.172;2024-03-02T18:03:32;8.75;;;4.35;;
15814;SDS011;8008;50.024;8.172;2024-03-02T18:06:03;7.90;;;4.35;;
15814;SDS011;8008;50.024;8.172;2024-03-02T18:08:31;6.55;;;3.80;;
15814;SDS011;8008;50.024;8.172;2024-03-02T18:11:04;6.03;;;3.75;;
15814;SDS011;8008;50.024;8.172;2024-03-02T18:13:32;5.05;;;3.35;;
15814;SDS011;8008;50.024;8.172;2024-03-02T18:16:01;5.38;;;3.60;;
15814;SDS011;8008;50.024;8.172;2024-03-02T18:18:30;7.20;;;4.15;;
15814;SDS011;8008;50.024;8.172;2024-03-02T18:20:58;4.95;;;3.28;;
15814;SDS011;8008;50.024;8.172;2024-03-02T18:23:28;5.72;;;3.58;;
15814;SDS011;8008;50.024;8.172;2024-03-02T18:25:57;4.28;;;3.22;;
15814;SDS011;8008;50.024;8.172;2024-03-02T18:28:25;7.25;;;3.58;;
15814;SDS011;8008;50.024;8.172;2024-03-02T18:30:53;6.47;;;3.60;;
15814;SDS011;8008;50.024;8.172;2024-03-02T18:33:21;5.72;;;3.55;;
15814;SDS011;8008;50.024;8.172;2024-03-02T18:35:49;6.18;;;4.20;;
15814;SDS011;8008;50.024;8.172;2024-03-02T18:38:17;8.55;;;4.43;;
15814;SDS011;8008;50.024;8.172;2024-03-02T18:40:46;9.77;;;5.05;;
15814;SDS011;8008;50.024;8.172;2024-03-02T18:43:14;7.13;;;4.38;;
15814;SDS011;8008;50.024;8.172;2024-03-02T18:45:42;6.38;;;4.38;;
15814;SDS011;8008;50.024;8.172;2024-03-02T18:48:10;6.57;;;4.07;;
15814;SDS011;8008;50.024;8.172;2024-03-02T18:50:38;5.93;;;3.97;;
15814;SDS011;8008;50.024;8.172;2024-03-02T18:53:06;6.35;;;4.28;;
15814;SDS011;8008;50.024;8.172;2024-03-02T18:55:38;6.00;;;3.85;;
15814;SDS011;8008;50.024;8.172;2024-03-02T18:58:08;7.78;;;4.22;;
15814;SDS011;8008;50.024;8.172;2024-03-02T19:00:36;4.72;;;3.50;;
15814;SDS011;8008;50.024;8.172;2024-03-02T19:03:04;5.70;;;3.90;;
15814;SDS011;8008;50.024;8.172;2024-03-02T19:05:36;7.47;;;4.97;;
15814;SDS011;8008;50.024;8.172;2024-03-02T19:08:05;10.75;;;5.38;;
15814;SDS011;8008;50.024;8.172;2024-03-02T19:10:34;7.30;;;4.70;;
15814;SDS011;8008;50.024;8.172;2024-03-02T19:13:02;9.18;;;5.80;;